Time;durP1;ratioP1;P1;durP2;ratioP2;P2;SDS_P1;SDS_P2;PMS_P1;PMS_P2;Temp;Humidity;BMP_temperature;BMP_pressure;BME280_temperature;BME280_humidity;BME280_pressure;Samples;Min_cycle;Max_cycle;Signal;HPM_P1;HPM_P2
2021/01/11 00:00:32;;;;;;;285.30;147.45;;;;;;;-5.48;79.05;99636.70;118719;1150;65124;-81
2021/01/11 00:03:04;;;;;;;261.97;144.10;;;;;;;-5.51;79.53;99636.68;118834;1150;65197;-82
2021/01/11 00:05:30;;;;;;;274.97;148.20;;;;;;;-5.55;79.23;99638.39;119031;1151;65274;-82
2021/01/11 00:07:56;;;;;;;297.03;154.20;;;;;;;-5.55;79.36;99637.53;118814;1151;65576;-82
2021/01/11 00:10:23;;;;;;;304.73;152.07;;;;;;;-5.52;79.62;99637.55;119074;1150;65153;-81
2021/01/11 00:12:49;;;;;;;276.30;151.57;;;;;;;-5.47;80.00;99632.41;119060;1150;65130;-81
2021/01/11 00:15:16;;;;;;;273.50;147.27;;;;;;;-5.39;79.98;99628.99;119311;1150;65220;-82
2021/01/11 00:17:43;;;;;;;286.05;146.75;;;;;;;-5.39;79.93;99628.13;119071;1150;65179;-84
2021/01/11 00:20:11;;;;;;;281.23;144.23;;;;;;;-5.38;79.07;99625.52;119065;1150;65564;-81
2021/01/11 00:22:37;;;;;;;285.67;148.10;;;;;;;-5.47;79.32;99628.06;119067;1150;65129;-83
2021/01/11 00:25:05;;;;;;;278.83;144.13;;;;;;;-5.57;79.31;99626.25;119143;1151;65159;-83
2021/01/11 00:27:31;;;;;;;291.23;155.40;;;;;;;;;;119059;1151;65176;-83
2021/01/11 00:29:57;;;;;;;302.73;157.30;;;;;;;-5.61;78.95;99632.27;119066;1151;65300;-83
2021/01/11 00:32:24;;;;;;;349.03;168.17;;;;;;;-5.70;79.18;99634.80;118801;1150;65220;-81
2021/01/11 00:34:50;;;;;;;338.53;167.63;;;;;;;-5.76;79.26;99627.83;119121;1150;65103;-81
2021/01/11 00:37:17;;;;;;;342.77;178.37;;;;;;;-5.75;78.76;99624.37;118944;1151;65114;-81
2021/01/11 00:39:43;;;;;;;324.73;162.67;;;;;;;-5.76;79.47;99627.83;118743;1150;65129;-81
2021/01/11 00:42:10;;;;;;;305.87;158.17;;;;;;;-5.79;79.58;99620.02;119175;1150;65303;-81
2021/01/11 00:44:36;;;;;;;313.47;161.13;;;;;;;-5.69;79.79;99619.22;119057;1151;65185;-81
2021/01/11 00:47:05;;;;;;;319.97;161.40;;;;;;;-5.69;78.98;99619.22;119224;1151;65187;-81
2021/01/11 00:49:32;;;;;;;311.47;157.87;;;;;;;-5.70;78.89;99621.82;119294;1151;65120;-81
2021/01/11 00:51:58;;;;;;;303.90;161.10;;;;;;;-5.71;79.08;99620.95;119311;1151;65570;-81
2021/01/11 00:54:25;;;;;;;326.07;170.67;;;;;;;-5.75;79.78;99617.44;119039;1150;65267;-81
2021/01/11 00:56:51;;;;;;;346.98;178.35;;;;;;;-5.75;79.40;99614.84;119355;1150;65144;-81
2021/01/11 00:59:17;;;;;;;345.05;175.25;;;;;;;-5.65;80.09;99614.94;119311;1150;65114;-83
2021/01/11 01:01:52;;;;;;;346.97;185.17;;;;;;;-5.65;79.09;99614.94;119334;1150;65144;-82
2021/01/11 01:04:18;;;;;;;343.50;172.70;;;;;;;-5.59;79.29;99621.03;119324;1150;65114;-84
2021/01/11 01:06:45;;;;;;;323.20;160.70;;;;;;;-5.61;79.00;99608.90;119300;1151;65207;-82
2021/01/11 01:09:12;;;;;;;314.20;164.83;;;;;;;-5.68;79.13;99613.19;119071;1151;65114;-81
2021/01/11 01:11:40;;;;;;;313.30;166.40;;;;;;;-5.77;79.02;99608.77;119277;1150;65201;-82
2021/01/11 01:14:08;;;;;;;313.83;157.70;;;;;;;-5.79;79.48;99613.09;119107;1151;65150;-82
2021/01/11 01:16:34;;;;;;;313.25;162.20;;;;;;;-5.84;79.04;99607.00;119278;1150;65217;-81
2021/01/11 01:19:02;;;;;;;312.25;157.80;;;;;;;-5.88;79.44;99602.63;119229;1150;65273;-81
2021/01/11 01:21:28;;;;;;;307.87;162.63;;;;;;;-5.94;78.54;99606.94;118764;1150;65223;-83
2021/01/11 01:23:55;;;;;;;339.20;170.20;;;;;;;-6.04;78.74;99612.02;118569;1151;65121;-81
2021/01/11 01:26:21;;;;;;;342.80;172.77;;;;;;;-6.03;79.86;99608.59;119248;1151;65107;-83
2021/01/11 01:28:48;;;;;;;338.40;179.37;;;;;;;-5.96;79.72;99601.72;119038;1151;65124;-83
2021/01/11 01:31:14;;;;;;;320.30;166.90;;;;;;;-5.97;78.97;99597.39;119328;1151;65241;-81
2021/01/11 01:33:42;;;;;;;314.43;168.27;;;;;;;-6.00;79.68;99600.83;119272;1150;65220;-82
2021/01/11 01:36:09;;;;;;;313.65;162.50;;;;;;;-5.93;79.07;99601.70;119313;1151;65079;-80
2021/01/11 01:38:35;;;;;;;335.20;172.30;;;;;;;-5.92;79.50;99602.56;119282;1150;65151;-81
2021/01/11 01:41:02;;;;;;;323.35;170.75;;;;;;;-5.93;79.67;99598.28;119060;1151;65152;-81
2021/01/11 01:43:28;;;;;;;337.80;174.70;;;;;;;-6.00;79.35;99597.37;119068;1151;65297;-81
2021/01/11 01:45:55;;;;;;;318.20;171.10;;;;;;;-6.07;78.66;99595.56;119276;1151;65166;-81
2021/01/11 01:48:22;;;;;;;336.57;180.90;;;;;;;-6.12;78.60;99592.92;119130;1151;65573;-81
2021/01/11 01:50:48;;;;;;;331.90;163.13;;;;;;;-6.17;79.44;99585.95;119118;1151;65143;-82
2021/01/11 01:53:14;;;;;;;342.07;178.03;;;;;;;-6.18;78.69;99590.28;119273;1151;65101;-82
2021/01/11 01:55:41;;;;;;;326.07;170.70;;;;;;;-6.21;79.34;99585.06;119292;1150;65102;-81
2021/01/11 01:58:09;;;;;;;326.50;176.97;;;;;;;-6.22;79.28;99578.12;119230;1150;65129;-81
2021/01/11 02:00:36;;;;;;;381.57;200.47;;;;;;;-6.19;79.29;99580.73;118528;1150;65551;-82
2021/01/11 02:03:03;;;;;;;340.03;182.53;;;;;;;-6.14;79.56;99580.79;119122;1150;65127;-83
2021/01/11 02:05:29;;;;;;;342.27;179.13;;;;;;;-6.13;79.30;99574.73;118692;1150;65063;-81
2021/01/11 02:08:12;;;;;;;355.65;181.75;;;;;;;-6.08;79.10;99575.64;118692;1151;65155;-80
2021/01/11 02:11:06;;;;;;;330.73;178.63;;;;;;;-6.15;79.05;99569.55;118856;1151;65210;-80
2021/01/11 02:13:32;;;;;;;341.17;183.17;;;;;;;-6.12;79.97;99574.77;118585;1151;65130;-83
2021/01/11 02:16:29;;;;;;;332.60;178.67;;;;;;;-6.08;79.81;99568.76;118713;1150;65121;-81
2021/01/11 02:19:14;;;;;;;329.60;176.27;;;;;;;-6.06;78.78;99568.75;118707;1151;65213;-81
2021/01/11 02:22:06;;;;;;;328.97;175.60;;;;;;;-6.12;78.86;99568.70;118847;1151;65129;-81
2021/01/11 02:25:02;;;;;;;324.40;173.13;;;;;;;-6.23;79.14;99569.47;119333;1150;65140;-82
2021/01/11 02:27:44;;;;;;;327.97;169.90;;;;;;;-6.22;79.44;99567.74;119088;1150;65147;-79
2021/01/11 02:30:22;;;;;;;323.50;171.15;;;;;;;-6.27;78.86;99572.02;119291;1150;65123;-80
2021/01/11 02:32:52;;;;;;;327.03;171.07;;;;;;;-6.29;78.78;99563.34;119255;1151;65200;-83
2021/01/11 02:35:20;;;;;;;331.13;167.93;;;;;;;-6.26;78.95;99553.89;118862;1151;65175;-81
2021/01/11 02:37:48;;;;;;;327.33;165.57;;;;;;;-6.27;78.53;99559.05;119020;1151;65100;-82
2021/01/11 02:40:15;;;;;;;316.90;160.20;;;;;;;-6.38;78.22;99558.08;119147;1151;65229;-83
2021/01/11 02:42:42;;;;;;;319.40;164.77;;;;;;;-6.41;78.83;99558.91;119311;1150;65031;-83
2021/01/11 02:45:10;;;;;;;311.37;160.63;;;;;;;-6.42;78.41;99552.00;119088;1150;65257;-81
2021/01/11 02:47:55;;;;;;;289.85;157.90;;;;;;;-6.41;79.07;99557.19;119355;1150;65442;-83
2021/01/11 02:50:26;;;;;;;304.75;163.30;;;;;;;-6.37;79.01;99557.21;119338;1150;65224;-83
2021/01/11 02:53:32;;;;;;;298.50;153.67;;;;;;;-6.37;78.60;99557.21;119112;1150;65146;-81
2021/01/11 02:56:05;;;;;;;289.67;151.03;;;;;;;-6.44;79.56;99545.92;119283;1150;65063;-82
2021/01/11 02:58:40;;;;;;;289.15;153.40;;;;;;;-6.44;79.65;99556.30;119325;1150;65166;-83
2021/01/11 03:01:11;;;;;;;282.23;150.60;;;;;;;-6.51;78.59;99547.57;119276;1150;65126;-82
2021/01/11 03:03:39;;;;;;;286.63;150.63;;;;;;;-6.49;78.75;99545.87;119299;1150;65567;-83
2021/01/11 03:06:11;;;;;;;298.80;147.50;;;;;;;-6.48;78.78;99545.00;119259;1151;65091;-79
2021/01/11 03:08:38;;;;;;;271.97;147.37;;;;;;;-6.48;78.67;99542.41;118891;1150;65140;-83
2021/01/11 03:11:04;;;;;;;275.60;144.45;;;;;;;-6.50;78.74;99541.55;118685;1151;65183;-83
2021/01/11 03:13:31;;;;;;;278.17;147.20;;;;;;;-6.50;78.76;99544.14;119168;1150;65045;-84
2021/01/11 03:15:57;;;;;;;272.97;145.40;;;;;;;-6.54;78.93;99542.36;119268;1150;65595;-83
2021/01/11 03:18:24;;;;;;;273.77;142.00;;;;;;;-6.61;78.55;99537.95;118859;1151;65181;-82
2021/01/11 03:20:51;;;;;;;299.57;147.93;;;;;;;-6.59;78.83;99535.39;119074;1151;65120;-83
2021/01/11 03:23:17;;;;;;;284.53;154.80;;;;;;;-6.56;79.51;99543.20;119042;1151;65127;-83
2021/01/11 03:25:44;;;;;;;300.67;153.97;;;;;;;-6.62;79.17;99539.68;119279;1150;65214;-83
2021/01/11 03:28:10;;;;;;;285.97;155.90;;;;;;;-6.61;79.44;99545.73;119311;1150;65123;-83
2021/01/11 03:30:36;;;;;;;283.10;150.13;;;;;;;-6.53;79.78;99541.53;119291;1150;65133;-83
2021/01/11 03:33:03;;;;;;;276.60;147.23;;;;;;;-6.52;79.16;99543.25;119283;1150;65114;-83
2021/01/11 03:35:29;;;;;;;289.00;146.60;;;;;;;-6.49;79.04;99545.87;119312;1151;65147;-83
2021/01/11 03:37:56;;;;;;;280.40;151.17;;;;;;;-6.48;79.60;99541.55;119282;1151;65151;-83
2021/01/11 03:40:22;;;;;;;282.73;154.18;;;;;;;-6.41;79.13;99548.55;119341;1150;65121;-81
2021/01/11 03:42:48;;;;;;;290.57;153.70;;;;;;;-6.42;79.35;99542.49;119311;1151;65165;-80
2021/01/11 03:45:15;;;;;;;292.50;158.70;;;;;;;-6.56;78.89;99545.79;119115;1151;65139;-81
2021/01/11 03:47:41;;;;;;;310.57;160.83;;;;;;;-6.61;79.61;99545.73;119183;1150;65130;-81
2021/01/11 03:50:08;;;;;;;287.60;161.00;;;;;;;-6.62;79.02;99544.00;119279;1150;65124;-81
2021/01/11 03:52:36;;;;;;;293.53;160.53;;;;;;;-6.64;79.67;99545.70;119333;1150;65137;-81
2021/01/11 03:55:03;;;;;;;308.32;165.45;;;;;;;-6.62;79.61;99534.50;119309;1150;65124;-81
2021/01/11 03:57:31;;;;;;;312.53;170.60;;;;;;;-6.53;79.89;99538.03;119118;1151;65123;-80
2021/01/11 03:59:58;;;;;;;311.30;178.87;;;;;;;-6.44;80.53;99533.83;119334;1150;65112;-81
2021/01/11 04:02:25;;;;;;;302.97;168.20;;;;;;;-6.36;79.66;99544.28;119112;1151;65383;-81
2021/01/11 04:04:51;;;;;;;297.47;161.30;;;;;;;-6.33;79.89;99538.25;119030;1151;65114;-81
2021/01/11 04:07:17;;;;;;;295.27;155.82;;;;;;;-6.31;79.74;99539.14;119091;1150;65204;-81
2021/01/11 04:09:44;;;;;;;282.90;160.15;;;;;;;-6.27;79.62;99530.52;118947;1151;65118;-81
2021/01/11 04:12:11;;;;;;;290.20;153.00;;;;;;;-6.30;79.09;99536.55;118729;1151;65219;-83
2021/01/11 04:14:38;;;;;;;273.50;148.07;;;;;;;-6.35;79.14;99543.41;118685;1151;65183;-83
2021/01/11 04:17:04;;;;;;;263.30;144.00;;;;;;;-6.38;79.32;99537.33;118755;1150;65143;-83
2021/01/11 04:19:31;;;;;;;260.03;138.30;;;;;;;-6.40;79.50;99529.52;118712;1150;65117;-82
2021/01/11 04:21:58;;;;;;;266.65;136.18;;;;;;;-6.48;78.69;99531.17;118723;1151;65097;-82
2021/01/11 04:24:24;;;;;;;275.40;143.10;;;;;;;-6.56;78.32;99540.60;118698;1150;65098;-81
2021/01/11 04:26:50;;;;;;;273.47;137.30;;;;;;;-6.66;78.59;99532.75;119271;1150;65318;-81
2021/01/11 04:29:17;;;;;;;252.60;138.55;;;;;;;-6.79;79.02;99541.23;119292;1151;65038;-81
2021/01/11 04:31:47;;;;;;;260.35;136.50;;;;;;;-6.85;79.29;99535.96;119068;1151;65612;-81
2021/01/11 04:34:13;;;;;;;259.90;138.67;;;;;;;-6.86;79.29;99539.42;119308;1150;65120;-81
2021/01/11 04:36:41;;;;;;;254.83;133.73;;;;;;;-6.86;79.57;99537.69;119083;1151;65095;-81
2021/01/11 04:39:08;;;;;;;254.87;137.13;;;;;;;-6.80;79.50;99536.02;119036;1151;65205;-82
2021/01/11 04:41:39;;;;;;;250.40;137.43;;;;;;;-6.64;79.66;99543.97;118692;1151;65126;-82
2021/01/11 04:44:09;;;;;;;247.40;134.83;;;;;;;-6.52;80.08;99535.48;118529;1151;65181;-81
2021/01/11 04:46:36;;;;;;;261.45;137.75;;;;;;;-6.48;79.20;99534.63;118992;1151;65166;-81
2021/01/11 04:49:05;;;;;;;255.20;137.23;;;;;;;-6.52;78.78;99537.20;119078;1150;65140;-81
2021/01/11 04:51:33;;;;;;;258.20;136.05;;;;;;;-6.53;79.23;99536.34;119089;1150;65119;-81
2021/01/11 04:54:00;;;;;;;254.40;135.07;;;;;;;-6.49;80.00;99534.64;118954;1151;65116;-81
2021/01/11 04:56:28;;;;;;;252.93;131.67;;;;;;;-6.50;79.67;99530.28;119269;1150;65231;-81
2021/01/11 04:58:58;;;;;;;262.55;135.60;;;;;;;-6.58;79.19;99530.23;119339;1150;65141;-81
2021/01/11 05:01:26;;;;;;;259.62;137.95;;;;;;;-6.64;78.81;99537.92;119363;1150;65099;-81
2021/01/11 05:03:58;;;;;;;268.07;146.30;;;;;;;-6.63;79.54;99529.31;118841;1151;65120;-81
2021/01/11 05:06:25;;;;;;;279.25;148.80;;;;;;;-6.61;79.09;99537.95;118957;1151;65120;-80
2021/01/11 05:08:51;;;;;;;274.75;147.30;;;;;;;-6.63;79.51;99532.77;118888;1150;65129;-81
2021/01/11 05:11:18;;;;;;;306.43;161.43;;;;;;;-6.60;79.85;99534.53;118682;1150;65118;-83
2021/01/11 05:13:49;;;;;;;295.27;162.40;;;;;;;-6.54;79.92;99537.17;118515;1151;65198;-81
2021/01/11 05:16:16;;;;;;;292.47;165.60;;;;;;;-6.49;79.46;99542.41;118986;1151;65181;-80
2021/01/11 05:18:42;;;;;;;286.50;153.97;;;;;;;-6.38;80.19;99538.20;119312;1150;65143;-84
2021/01/11 05:21:09;;;;;;;282.40;153.17;;;;;;;-6.28;79.54;99539.16;119060;1150;65099;-80
2021/01/11 05:23:37;;;;;;;291.03;155.30;;;;;;;-6.23;79.34;99540.08;118545;1150;65185;-83
2021/01/11 05:26:15;;;;;;;285.23;161.30;;;;;;;-6.15;79.62;99532.37;118853;1151;65225;-83
2021/01/11 05:28:42;;;;;;;294.13;161.00;;;;;;;-6.08;80.06;99536.73;118870;1150;65225;-82
2021/01/11 05:31:09;;;;;;;314.60;165.03;;;;;;;-6.01;79.30;99523.83;118855;1151;65161;-82
2021/01/11 05:33:51;;;;;;;291.63;158.50;;;;;;;-5.92;79.66;99528.21;119262;1150;65118;-83
2021/01/11 05:36:19;;;;;;;301.63;165.80;;;;;;;-5.77;79.94;99536.08;119114;1151;65207;-82
2021/01/11 05:38:46;;;;;;;280.30;156.70;;;;;;;-5.65;79.58;99534.45;119301;1151;65083;-82
2021/01/11 05:41:17;;;;;;;294.40;162.47;;;;;;;-5.69;79.86;99540.47;119258;1150;65121;-81
2021/01/11 05:44:13;;;;;;;283.87;153.33;;;;;;;-5.69;79.42;99536.14;119330;1150;65513;-83
2021/01/11 05:46:41;;;;;;;273.10;147.07;;;;;;;-5.60;79.47;99538.81;118896;1151;65121;-82
2021/01/11 05:49:12;;;;;;;274.85;144.70;;;;;;;-5.50;79.99;99539.76;118698;1150;65139;-81
2021/01/11 05:51:39;;;;;;;279.63;149.00;;;;;;;-5.41;80.16;99542.39;118502;1150;65006;-81
2021/01/11 05:54:23;;;;;;;276.13;146.47;;;;;;;-5.26;80.32;99535.56;118690;1150;65306;-81
2021/01/11 05:56:56;;;;;;;276.55;143.50;;;;;;;-5.13;80.42;99533.03;118717;1151;65149;-82
2021/01/11 05:59:24;;;;;;;264.75;138.20;;;;;;;-4.99;79.47;99534.83;118804;1151;65188;-81
2021/01/11 06:01:59;;;;;;;263.23;139.77;;;;;;;-5.02;79.39;99533.08;119166;1151;65188;-81
2021/01/11 06:04:27;;;;;;;265.77;142.03;;;;;;;-5.03;79.28;99541.72;119324;1150;65166;-83
2021/01/11 06:06:55;;;;;;;282.10;149.07;;;;;;;-4.99;79.39;99540.02;118957;1151;65615;-81
2021/01/11 06:09:22;;;;;;;294.57;151.03;;;;;;;-4.98;79.74;99542.61;119312;1151;65101;-81
2021/01/11 06:11:50;;;;;;;288.67;147.83;;;;;;;-4.98;79.60;99547.81;119303;1150;65111;-81
2021/01/11 06:14:19;;;;;;;270.10;140.10;;;;;;;-4.92;79.48;99539.20;119121;1151;65099;-83
2021/01/11 06:16:46;;;;;;;261.35;142.20;;;;;;;-4.87;80.04;99546.14;119302;1151;65118;-81
2021/01/11 06:19:12;;;;;;;276.17;143.00;;;;;;;-4.83;79.79;99548.75;119086;1151;65229;-81
2021/01/11 06:21:49;;;;;;;252.43;135.83;;;;;;;-4.81;79.69;99544.44;119290;1151;65105;-82
2021/01/11 06:24:17;;;;;;;257.17;138.27;;;;;;;-4.84;79.28;99545.29;119317;1151;65123;-81
2021/01/11 06:26:45;;;;;;;261.93;141.10;;;;;;;-4.79;79.48;99555.68;119337;1151;65223;-81
2021/01/11 06:29:33;;;;;;;277.90;144.60;;;;;;;-4.76;79.51;99550.52;119129;1151;65504;-84
2021/01/11 06:32:22;;;;;;;258.45;143.45;;;;;;;-4.77;79.62;99557.42;119333;1150;65130;-80
2021/01/11 06:34:49;;;;;;;280.00;142.90;;;;;;;-4.79;79.87;99560.88;119327;1150;65124;-83
2021/01/11 06:37:18;;;;;;;266.97;144.07;;;;;;;-4.73;79.94;99553.13;119284;1149;65063;-81
2021/01/11 06:39:48;;;;;;;267.15;142.30;;;;;;;-4.61;80.07;99554.88;119317;1150;65204;-81
2021/01/11 06:42:15;;;;;;;299.03;147.30;;;;;;;-4.51;80.19;99552.31;119308;1150;65130;-83
2021/01/11 06:44:48;;;;;;;265.30;141.47;;;;;;;-4.48;79.55;99554.91;119256;1150;65223;-83
2021/01/11 06:47:30;;;;;;;269.67;143.73;;;;;;;-4.38;80.04;99554.95;118701;1150;65140;-82
2021/01/11 06:50:08;;;;;;;272.97;142.10;;;;;;;-4.26;79.68;99557.59;118991;1150;65088;-83
2021/01/11 06:52:37;;;;;;;249.45;140.05;;;;;;;-4.21;79.88;99559.33;119198;1151;65151;-82
2021/01/11 06:55:14;;;;;;;263.20;141.10;;;;;;;-4.15;79.98;99555.87;118449;1151;65070;-80
2021/01/11 06:57:48;;;;;;;254.60;134.40;;;;;;;-4.16;79.35;99561.05;119195;1151;65240;-83
2021/01/11 07:00:19;;;;;;;254.50;136.95;;;;;;;-4.10;79.89;99553.28;119163;1151;65126;-81
2021/01/11 07:02:46;;;;;;;260.03;134.33;;;;;;;-4.11;79.34;99561.93;119280;1150;65137;-81
2021/01/11 07:05:33;;;;;;;260.70;138.00;;;;;;;-4.12;79.31;99565.41;119091;1151;65043;-82
2021/01/11 07:08:02;;;;;;;289.95;147.20;;;;;;;-4.11;79.56;99568.00;119314;1151;65115;-81
2021/01/11 07:10:29;;;;;;;;;;;;;;;-4.03;80.33;99566.30;119315;1150;65031;-81
2021/01/11 07:13:18;;;;;;;295.40;143.40;;;;;;;-3.98;80.29;99569.78;119311;1150;65121;-81
2021/01/11 07:16:06;;;;;;;256.10;127.47;;;;;;;-3.91;79.45;99569.77;119218;1151;65082;-81
2021/01/11 07:18:38;;;;;;;220.70;116.70;;;;;;;-3.86;80.12;99566.30;119282;1150;65150;-81
2021/01/11 07:21:29;;;;;;;237.80;118.40;;;;;;;-3.83;80.13;99563.69;119319;1151;65196;-81
2021/01/11 07:23:56;;;;;;;235.70;123.70;;;;;;;-3.76;79.87;99564.58;119286;1150;65130;-82
2021/01/11 07:26:25;;;;;;;248.33;127.30;;;;;;;-3.75;79.23;99567.16;119138;1151;65098;-82
2021/01/11 07:29:02;;;;;;;242.47;127.80;;;;;;;-3.76;79.49;99572.39;119288;1150;65145;-81
2021/01/11 07:31:30;;;;;;;239.90;129.37;;;;;;;-3.77;79.73;99568.03;119315;1150;65129;-82
2021/01/11 07:34:03;;;;;;;226.00;122.00;;;;;;;-3.78;79.48;99572.38;119318;1150;65126;-80
2021/01/11 07:36:33;;;;;;;231.63;118.43;;;;;;;-3.78;79.44;99569.77;119329;1150;65198;-81
2021/01/11 07:39:15;;;;;;;227.67;121.20;;;;;;;-3.68;80.16;99565.44;119182;1150;65095;-82
2021/01/11 07:41:44;;;;;;;225.53;122.57;;;;;;;-3.58;79.79;99571.48;119063;1150;65114;-82
2021/01/11 07:44:13;;;;;;;246.77;128.63;;;;;;;-3.49;79.88;99568.03;118938;1150;65133;-83
2021/01/11 07:46:39;;;;;;;244.13;126.67;;;;;;;-3.44;79.43;99569.76;118780;1151;65104;-82
2021/01/11 07:49:14;;;;;;;224.97;120.63;;;;;;;-3.40;79.40;99560.19;119137;1150;65168;-84
2021/01/11 07:51:42;;;;;;;232.73;120.07;;;;;;;-3.32;79.54;99561.04;119190;1150;65140;-81
2021/01/11 07:54:12;;;;;;;267.23;135.33;;;;;;;-3.31;79.06;99570.61;118827;1151;65117;-81
2021/01/11 07:56:39;;;;;;;305.03;153.33;;;;;;;-3.19;80.16;99572.31;118732;1151;65127;-80
2021/01/11 07:59:07;;;;;;;256.23;134.53;;;;;;;-3.09;79.90;99558.39;119019;1151;65143;-81
2021/01/11 08:01:38;;;;;;;222.10;116.90;;;;;;;-3.01;79.99;99555.76;119265;1151;65369;-81
2021/01/11 08:04:05;;;;;;;226.40;121.17;;;;;;;-2.96;79.59;99561.83;119308;1151;65028;-81
2021/01/11 08:07:02;;;;;;;221.43;115.43;;;;;;;-2.92;79.48;99554.00;119306;1151;65121;-82
2021/01/11 08:09:32;;;;;;;213.80;119.07;;;;;;;-2.87;78.88;99561.78;118773;1150;65217;-82
2021/01/11 08:12:07;;;;;;;209.35;115.75;;;;;;;-2.82;79.57;99561.77;118699;1150;65120;-83
2021/01/11 08:14:36;;;;;;;204.77;111.73;;;;;;;-2.73;79.05;99559.14;119254;1150;65229;-82
2021/01/11 08:17:05;;;;;;;206.57;109.73;;;;;;;-2.73;79.08;99556.53;119122;1151;65140;-81
2021/01/11 08:19:32;;;;;;;189.75;107.10;;;;;;;-2.70;78.58;99561.73;119309;1150;65063;-81
2021/01/11 08:22:01;;;;;;;201.13;113.80;;;;;;;-2.66;78.80;99561.72;119088;1150;65124;-82
2021/01/11 08:24:28;;;;;;;201.33;114.40;;;;;;;-2.61;79.15;99560.81;119096;1151;65212;-82
2021/01/11 08:27:07;;;;;;;205.23;114.70;;;;;;;-2.55;78.77;99568.64;119288;1150;65191;-82
2021/01/11 08:29:38;;;;;;;214.23;118.93;;;;;;;-2.50;78.53;99567.73;119071;1150;65129;-82
2021/01/11 08:32:09;;;;;;;202.10;116.13;;;;;;;-2.43;79.30;99568.55;119315;1151;65076;-80
2021/01/11 08:34:35;;;;;;;198.97;115.67;;;;;;;-2.38;78.83;99568.54;119150;1151;65026;-82
2021/01/11 08:37:30;;;;;;;204.77;116.43;;;;;;;-2.36;78.84;99564.19;119279;1151;65228;-81
2021/01/11 08:40:05;;;;;;;199.43;113.90;;;;;;;-2.30;78.81;99569.36;119084;1150;65281;-81
2021/01/11 08:42:33;;;;;;;213.00;118.73;;;;;;;-2.21;78.75;99572.79;119022;1150;65201;-81
2021/01/11 08:45:27;;;;;;;200.80;117.20;;;;;;;-2.12;78.64;99564.02;119278;1150;65515;-81
2021/01/11 08:48:12;;;;;;;217.17;125.27;;;;;;;-2.01;79.36;99566.56;119209;1149;65210;-81
2021/01/11 08:50:41;;;;;;;201.13;118.33;;;;;;;-1.94;79.06;99572.63;119122;1150;65159;-82
2021/01/11 08:53:23;;;;;;;198.70;116.27;;;;;;;-1.90;79.02;99571.70;118623;1151;65176;-81
2021/01/11 08:55:52;;;;;;;195.40;110.70;;;;;;;-1.81;78.32;99567.29;118637;1150;65170;-81
2021/01/11 08:58:19;;;;;;;189.30;111.70;;;;;;;-1.70;78.72;99561.97;119112;1151;65128;-82
2021/01/11 09:00:45;;;;;;;194.50;114.00;;;;;;;-1.65;78.62;99572.40;119220;1150;65120;-82
2021/01/11 09:03:12;;;;;;;189.50;112.85;;;;;;;-1.61;78.44;99571.47;118711;1151;65137;-81
2021/01/11 09:05:38;;;;;;;198.13;114.80;;;;;;;-1.59;78.48;99574.95;118774;1151;65154;-81
2021/01/11 09:08:17;;;;;;;192.90;114.17;;;;;;;-1.56;78.18;99574.91;119302;1150;65146;-82
2021/01/11 09:10:45;;;;;;;186.13;115.20;;;;;;;-1.45;79.04;99570.48;119328;1150;65120;-82
2021/01/11 09:13:19;;;;;;;196.30;116.47;;;;;;;-1.29;77.99;99568.59;119305;1151;65060;-80
2021/01/11 09:15:46;;;;;;;192.27;117.77;;;;;;;-1.22;78.51;99569.38;119249;1150;65074;-83
2021/01/11 09:18:14;;;;;;;181.65;110.30;;;;;;;-1.14;78.56;99560.56;119326;1151;65192;-82
2021/01/11 09:20:42;;;;;;;190.07;117.27;;;;;;;-1.05;77.97;99561.34;119316;1150;65104;-80
2021/01/11 09:23:09;;;;;;;162.30;99.93;;;;;;;-1.01;78.07;99558.69;119148;1150;65152;-79
2021/01/11 09:25:37;;;;;;;137.75;84.15;;;;;;;-0.96;77.71;99564.73;119001;1150;65102;-83
2021/01/11 09:28:08;;;;;;;134.27;76.87;;;;;;;-0.98;77.47;99563.88;118741;1151;65085;-83
2021/01/11 09:30:36;;;;;;;132.50;75.97;;;;;;;-1.02;78.21;99569.19;118708;1150;65268;-80
2021/01/11 09:33:05;;;;;;;123.77;72.40;;;;;;;-1.03;78.13;99563.06;118491;1151;65164;-82
2021/01/11 09:35:31;;;;;;;115.77;69.40;;;;;;;-1.01;78.09;99568.30;118954;1151;65129;-82
2021/01/11 09:37:58;;;;;;;115.03;66.33;;;;;;;-0.99;78.18;99556.06;118739;1151;65147;-81
2021/01/11 09:40:25;;;;;;;120.90;69.70;;;;;;;-0.97;77.57;99547.32;118854;1150;65124;-82
2021/01/11 09:42:51;;;;;;;134.33;75.20;;;;;;;-0.95;78.25;99553.41;118610;1150;65270;-81
2021/01/11 09:45:18;;;;;;;119.97;66.83;;;;;;;-0.94;77.66;99560.36;118929;1151;65090;-79
2021/01/11 09:47:45;;;;;;;120.87;67.93;;;;;;;-1.01;77.11;99556.07;119012;1150;65110;-81
2021/01/11 09:50:12;;;;;;;120.77;64.37;;;;;;;-1.07;76.94;99552.67;119098;1151;65288;-80
2021/01/11 09:52:39;;;;;;;122.53;69.13;;;;;;;-1.11;77.77;99557.05;119313;1150;65162;-80
2021/01/11 09:55:07;;;;;;;125.00;71.67;;;;;;;-1.08;77.46;99545.69;119062;1150;65169;-81
2021/01/11 09:57:35;;;;;;;122.53;69.90;;;;;;;-1.07;77.31;99543.07;119091;1150;65210;-80
2021/01/11 10:00:07;;;;;;;131.47;71.00;;;;;;;-1.00;77.54;99542.13;119347;1151;65102;-81
2021/01/11 10:02:33;;;;;;;125.43;73.43;;;;;;;-0.99;77.00;99541.23;119340;1150;65226;-81
2021/01/11 10:05:00;;;;;;;141.30;78.57;;;;;;;-0.99;77.58;99538.62;119287;1150;65102;-81
2021/01/11 10:07:26;;;;;;;114.00;66.53;;;;;;;-0.98;77.72;99542.95;119331;1150;65049;-82
2021/01/11 10:09:53;;;;;;;137.00;79.00;;;;;;;-0.96;77.73;99540.33;119315;1151;65114;-83
2021/01/11 10:12:19;;;;;;;120.90;70.57;;;;;;;-1.01;76.48;99542.99;119315;1150;65120;-80
2021/01/11 10:14:46;;;;;;;135.80;77.50;;;;;;;-1.06;76.99;99551.78;118970;1151;65118;-81
2021/01/11 10:17:12;;;;;;;138.27;80.33;;;;;;;-1.05;76.68;99543.93;118786;1151;65191;-81
2021/01/11 10:19:39;;;;;;;130.17;77.10;;;;;;;-1.00;77.13;99542.13;119295;1150;65091;-81
2021/01/11 10:22:05;;;;;;;145.63;85.20;;;;;;;-0.89;76.99;99539.39;119134;1150;65108;-81
2021/01/11 10:24:32;;;;;;;143.33;77.10;;;;;;;-0.80;76.92;99547.11;119317;1150;65111;-81
2021/01/11 10:26:59;;;;;;;140.28;79.82;;;;;;;-0.72;77.33;99531.31;119183;1151;65204;-80
2021/01/11 10:29:26;;;;;;;128.45;73.47;;;;;;;-0.70;77.40;99529.55;118959;1151;65172;-81
2021/01/11 10:31:53;;;;;;;138.90;75.65;;;;;;;-0.66;76.54;99520.76;119056;1151;65204;-81
2021/01/11 10:34:22;;;;;;;125.05;74.05;;;;;;;-0.63;77.30;99528.59;119153;1151;65134;-82
2021/01/11 10:36:51;;;;;;;138.40;75.50;;;;;;;-0.57;77.35;99519.80;119123;1150;65079;-82
2021/01/11 10:39:24;;;;;;;132.75;71.30;;;;;;;-0.50;76.71;99516.19;119169;1151;65130;-82
2021/01/11 10:41:55;;;;;;;128.17;72.17;;;;;;;-0.41;77.15;99513.45;118957;1151;65082;-81
2021/01/11 10:44:23;;;;;;;125.20;71.17;;;;;;;-0.38;76.71;99508.16;119108;1151;65222;-81
2021/01/11 10:46:50;;;;;;;119.67;69.77;;;;;;;-0.35;76.69;99502.88;119315;1150;65124;-83
2021/01/11 10:49:18;;;;;;;116.50;71.87;;;;;;;-0.32;76.49;99499.35;119284;1150;65095;-82
2021/01/11 10:51:46;;;;;;;114.20;68.63;;;;;;;-0.26;76.44;99496.66;119101;1151;65189;-81
2021/01/11 10:54:12;;;;;;;116.65;67.65;;;;;;;-0.22;76.73;99493.95;119179;1151;65169;-81
2021/01/11 10:56:39;;;;;;;113.40;64.50;;;;;;;-0.11;75.84;99498.16;118969;1151;65147;-82
2021/01/11 10:59:05;;;;;;;107.87;64.33;;;;;;;-0.06;76.37;99491.09;118532;1150;65210;-80
2021/01/11 11:01:32;;;;;;;101.53;60.07;;;;;;;-0.01;75.67;99491.89;118872;1151;65191;-80
2021/01/11 11:03:58;;;;;;;92.60;52.73;;;;;;;0.02;75.48;99496.22;119357;1150;66626;-80
2021/01/11 11:06:25;;;;;;;92.97;51.90;;;;;;;0.07;75.71;99486.53;119326;1150;65105;-81
2021/01/11 11:08:53;;;;;;;93.37;51.17;;;;;;;0.13;75.05;99481.17;119039;1151;65277;-82